createdAt,value
2019-05-21T00:00:44.896Z,0.00
2019-05-21T00:01:44.885Z,0.00
2019-05-21T00:02:44.874Z,0.00
2019-05-21T00:03:44.863Z,0.00
2019-05-21T00:04:44.876Z,0.00
2019-05-21T00:05:44.841Z,0.00
2019-05-21T00:06:44.829Z,0.00
2019-05-21T00:07:44.818Z,0.00
2019-05-21T00:08:44.808Z,0.00
2019-05-21T00:09:44.796Z,0.00
2019-05-21T00:10:44.793Z,0.00
2019-05-21T00:11:44.773Z,0.00
2019-05-21T00:12:44.762Z,0.00
2019-05-21T00:13:44.753Z,0.00
2019-05-21T00:14:44.739Z,0.00
2019-05-21T00:15:44.728Z,0.00
2019-05-21T00:16:44.748Z,0.00
2019-05-21T00:17:44.706Z,0.00
2019-05-21T00:18:44.695Z,0.00
2019-05-21T00:19:44.683Z,0.00
2019-05-21T00:20:44.672Z,0.00
2019-05-21T00:21:44.662Z,0.00
2019-05-21T00:22:44.657Z,0.00
2019-05-21T00:23:44.638Z,0.00
2019-05-21T00:24:44.699Z,0.00
2019-05-21T00:25:44.615Z,0.00
2019-05-21T00:26:44.605Z,0.00
2019-05-21T00:27:44.593Z,0.00
2019-05-21T00:28:44.589Z,0.00
2019-05-21T00:29:44.572Z,0.00
2019-05-21T00:30:44.559Z,0.00
2019-05-21T00:31:44.548Z,0.00
2019-05-21T00:32:44.537Z,0.00
2019-05-21T00:33:44.571Z,0.00
2019-05-21T00:34:44.672Z,0.00
2019-05-21T00:35:44.503Z,0.00
2019-05-21T00:36:44.492Z,0.00
2019-05-21T00:37:44.481Z,0.00
2019-05-21T00:38:44.468Z,0.00
2019-05-21T00:39:44.458Z,0.00
2019-05-21T00:40:44.467Z,0.00
2019-05-21T00:41:44.435Z,0.00
2019-05-21T00:42:44.425Z,0.00
2019-05-21T00:43:44.413Z,0.00
2019-05-21T00:44:44.406Z,0.00
2019-05-21T00:45:44.391Z,0.00
2019-05-21T00:46:44.386Z,0.00
2019-05-21T00:47:44.368Z,0.00
2019-05-21T00:48:44.357Z,0.00
2019-05-21T00:49:44.346Z,0.00
2019-05-21T00:50:44.334Z,0.00
2019-05-21T00:51:44.322Z,0.00
2019-05-21T00:52:44.332Z,0.00
2019-05-21T00:53:44.301Z,0.00
2019-05-21T00:54:44.289Z,0.00
2019-05-21T00:55:44.278Z,0.00
2019-05-21T00:56:44.266Z,0.00
2019-05-21T00:57:44.256Z,0.00
2019-05-21T00:58:44.265Z,0.00
2019-05-21T00:59:44.233Z,0.00
2019-05-21T01:00:44.221Z,0.00
2019-05-21T01:01:44.214Z,0.00
2019-05-21T01:02:44.198Z,0.00
2019-05-21T01:03:44.189Z,0.00
2019-05-21T01:04:58.101Z,0.00
2019-05-21T01:05:45.171Z,0.00
2019-05-21T01:06:44.154Z,0.00
2019-05-21T01:07:44.142Z,0.00
2019-05-21T01:08:44.132Z,0.00
2019-05-21T01:09:44.119Z,0.00
2019-05-21T01:10:44.139Z,0.00
2019-05-21T01:11:44.097Z,0.00
2019-05-21T01:12:44.086Z,0.00
2019-05-21T01:13:44.081Z,0.00
2019-05-21T01:14:44.063Z,0.00
2019-05-21T01:15:44.053Z,0.00
2019-05-21T01:16:44.066Z,0.00
2019-05-21T01:17:44.030Z,0.00
2019-05-21T01:18:44.018Z,0.00
2019-05-21T01:19:44.007Z,0.00
2019-05-21T01:20:43.997Z,0.00
2019-05-21T01:21:43.991Z,0.00
2019-05-21T01:22:44.050Z,0.00
2019-05-21T01:23:43.998Z,0.00
2019-05-21T01:24:43.965Z,0.00
2019-05-21T01:25:43.940Z,0.00
2019-05-21T01:26:43.929Z,0.00
2019-05-21T01:27:43.918Z,0.00
2019-05-21T01:28:43.914Z,0.00
2019-05-21T01:29:43.895Z,0.00
2019-05-21T01:30:43.884Z,0.00
2019-05-21T01:31:43.878Z,0.00
2019-05-21T01:32:43.862Z,0.00
2019-05-21T01:33:43.849Z,0.00
2019-05-21T01:34:43.851Z,0.00
2019-05-21T01:35:43.828Z,0.00
2019-05-21T01:36:43.818Z,0.00
2019-05-21T01:37:43.805Z,0.00
2019-05-21T01:38:43.794Z,0.00
2019-05-21T01:39:43.783Z,0.00
2019-05-21T01:40:43.784Z,0.00
2019-05-21T01:41:43.760Z,0.00
2019-05-21T01:42:43.749Z,0.00
2019-05-21T01:43:43.737Z,0.00
2019-05-21T01:44:43.725Z,0.00
2019-05-21T01:45:43.714Z,0.00
2019-05-21T01:46:43.735Z,0.00
2019-05-21T01:47:43.693Z,0.00
2019-05-21T01:48:43.681Z,0.00
2019-05-21T01:49:43.670Z,0.00
2019-05-21T01:50:43.660Z,0.00
2019-05-21T01:51:43.648Z,0.00
2019-05-21T01:52:43.645Z,0.00
2019-05-21T01:53:43.624Z,0.00
2019-05-21T01:54:43.629Z,0.00
2019-05-21T01:55:43.602Z,0.00
2019-05-21T01:56:43.592Z,0.00
2019-05-21T01:57:43.579Z,0.00
2019-05-21T01:58:43.596Z,0.00
2019-05-21T01:59:43.556Z,0.00
2019-05-21T02:00:43.553Z,0.00
2019-05-21T02:01:43.534Z,0.00
2019-05-21T02:02:43.522Z,0.00
2019-05-21T02:03:43.514Z,0.00
2019-05-21T02:04:43.510Z,0.00
2019-05-21T02:05:43.488Z,0.00
2019-05-21T02:06:43.481Z,0.00
2019-05-21T02:07:43.471Z,0.00
2019-05-21T02:08:43.459Z,0.00
2019-05-21T02:09:43.444Z,0.00
2019-05-21T02:10:43.467Z,0.00
2019-05-21T02:11:43.421Z,0.00
2019-05-21T02:12:43.411Z,0.00
2019-05-21T02:13:43.398Z,0.00
2019-05-21T02:14:43.421Z,0.00
2019-05-21T02:15:43.381Z,0.00
2019-05-21T02:16:43.386Z,0.00
2019-05-21T02:17:43.415Z,0.00
2019-05-21T02:18:43.343Z,0.00
2019-05-21T02:19:43.332Z,0.00
2019-05-21T02:20:43.320Z,0.00
2019-05-21T02:21:43.314Z,0.00
2019-05-21T02:22:43.329Z,0.00
2019-05-21T02:23:43.286Z,0.00
2019-05-21T02:24:43.276Z,0.00
2019-05-21T02:25:43.311Z,0.00
2019-05-21T02:26:43.255Z,0.00
2019-05-21T02:27:43.241Z,0.00
2019-05-21T02:28:43.240Z,0.00
2019-05-21T02:29:43.220Z,0.00
2019-05-21T02:30:43.211Z,0.00
2019-05-21T02:31:43.197Z,0.00
2019-05-21T02:32:43.186Z,0.00
2019-05-21T02:33:43.182Z,0.00
2019-05-21T02:34:43.171Z,0.00
2019-05-21T02:35:53.589Z,0.00
2019-05-21T02:36:44.139Z,0.00
2019-05-21T02:37:43.129Z,0.00
2019-05-21T02:38:43.118Z,0.00
2019-05-21T02:39:43.106Z,0.00
2019-05-21T02:40:43.120Z,0.00
2019-05-21T02:41:43.085Z,0.00
2019-05-21T02:42:43.075Z,0.00
2019-05-21T02:43:43.062Z,0.00
2019-05-21T02:44:43.052Z,0.00
2019-05-21T02:45:43.039Z,0.00
2019-05-21T02:46:43.058Z,0.00
2019-05-21T02:47:43.030Z,0.00
2019-05-21T02:48:43.017Z,0.00
2019-05-21T02:49:42.997Z,0.00
2019-05-21T02:50:42.983Z,0.00
2019-05-21T02:51:42.992Z,0.00
2019-05-21T02:52:42.987Z,0.00
2019-05-21T02:53:42.950Z,0.00
2019-05-21T02:54:42.943Z,0.00
2019-05-21T02:55:42.939Z,0.00
2019-05-21T02:56:42.915Z,0.00
2019-05-21T02:57:42.904Z,0.00
2019-05-21T02:58:42.924Z,0.00
2019-05-21T02:59:42.881Z,0.00
2019-05-21T03:00:42.870Z,0.00
2019-05-21T03:01:42.859Z,0.00
2019-05-21T03:02:42.849Z,0.00
2019-05-21T03:03:42.840Z,0.00
2019-05-21T03:04:42.835Z,0.00
2019-05-21T03:05:42.827Z,4.00
2019-05-21T03:06:42.803Z,4.00
2019-05-21T03:07:42.791Z,4.00
2019-05-21T03:08:42.779Z,4.00
2019-05-21T03:09:42.770Z,4.00
2019-05-21T03:10:42.768Z,4.00
2019-05-21T03:11:42.748Z,0.00
2019-05-21T03:12:42.736Z,4.00
2019-05-21T03:13:42.724Z,4.00
2019-05-21T03:14:42.718Z,4.00
2019-05-21T03:15:42.703Z,4.00
2019-05-21T03:16:42.720Z,4.00
2019-05-21T03:17:42.678Z,4.00
2019-05-21T03:18:42.668Z,8.00
2019-05-21T03:19:42.659Z,8.00
2019-05-21T03:20:42.646Z,4.00
2019-05-21T03:21:42.641Z,4.00
2019-05-21T03:22:42.655Z,4.00
2019-05-21T03:23:42.621Z,4.00
2019-05-21T03:24:42.599Z,8.00
2019-05-21T03:25:42.589Z,8.00
2019-05-21T03:26:42.577Z,8.00
2019-05-21T03:27:42.568Z,8.00
2019-05-21T03:28:42.577Z,8.00
2019-05-21T03:29:42.543Z,8.00
2019-05-21T03:30:42.533Z,8.00
2019-05-21T03:31:42.527Z,8.00
2019-05-21T03:32:42.513Z,8.00
2019-05-21T03:33:42.512Z,12.00
2019-05-21T03:34:42.506Z,12.00
2019-05-21T03:35:42.482Z,12.00
2019-05-21T03:36:42.474Z,8.00
2019-05-21T03:37:42.455Z,8.00
2019-05-21T03:38:42.445Z,12.00
2019-05-21T03:39:42.437Z,12.00
2019-05-21T03:40:42.428Z,12.00
2019-05-21T03:41:42.417Z,12.00
2019-05-21T03:42:42.402Z,16.00
2019-05-21T03:43:42.400Z,16.00
2019-05-21T03:44:58.392Z,12.00
2019-05-21T03:45:43.390Z,12.00
2019-05-21T03:46:42.374Z,12.00
2019-05-21T03:47:42.354Z,16.00
2019-05-21T03:48:42.334Z,16.00
2019-05-21T03:49:42.329Z,16.00
2019-05-21T03:50:42.312Z,16.00
2019-05-21T03:51:42.331Z,16.00
2019-05-21T03:52:42.302Z,16.00
2019-05-21T03:53:42.277Z,16.00
2019-05-21T03:54:42.269Z,16.00
2019-05-21T03:55:42.254Z,16.00
2019-05-21T03:56:42.244Z,16.00
2019-05-21T03:57:42.272Z,16.00
2019-05-21T03:58:42.221Z,16.00
2019-05-21T03:59:42.211Z,16.00
2019-05-21T04:00:42.203Z,20.00
2019-05-21T04:01:42.188Z,20.00
2019-05-21T04:02:42.181Z,20.00
2019-05-21T04:03:42.185Z,16.00
2019-05-21T04:04:42.151Z,20.00
2019-05-21T04:05:42.138Z,20.00
2019-05-21T04:06:51.720Z,20.00
2019-05-21T04:07:43.120Z,24.00
2019-05-21T04:08:42.105Z,20.00
2019-05-21T04:09:42.101Z,20.00
2019-05-21T04:10:42.093Z,20.00
2019-05-21T04:11:42.072Z,24.00
2019-05-21T04:12:42.066Z,24.00
2019-05-21T04:13:42.047Z,24.00
2019-05-21T04:14:42.037Z,20.00
2019-05-21T04:15:42.058Z,24.00
2019-05-21T04:16:42.014Z,24.00
2019-05-21T04:17:42.018Z,24.00
2019-05-21T04:18:41.994Z,24.00
2019-05-21T04:19:41.983Z,24.00
2019-05-21T04:20:41.997Z,24.00
2019-05-21T04:21:41.988Z,24.00
2019-05-21T04:22:41.946Z,28.00
2019-05-21T04:23:41.939Z,28.00
2019-05-21T04:24:41.924Z,28.00
2019-05-21T04:25:41.915Z,24.00
2019-05-21T04:26:41.906Z,24.00
2019-05-21T04:27:41.922Z,28.00
2019-05-21T04:28:41.889Z,28.00
2019-05-21T04:29:41.868Z,28.00
2019-05-21T04:30:41.861Z,28.00
2019-05-21T04:31:41.845Z,28.00
2019-05-21T04:32:41.835Z,32.00
2019-05-21T04:33:41.829Z,28.00
2019-05-21T04:34:41.811Z,28.00
2019-05-21T04:35:41.800Z,28.00
2019-05-21T04:36:41.792Z,28.00
2019-05-21T04:37:41.778Z,28.00
2019-05-21T04:38:41.775Z,32.00
2019-05-21T04:39:41.778Z,32.00
2019-05-21T04:40:41.745Z,32.00
2019-05-21T04:41:41.746Z,32.00
2019-05-21T04:42:41.722Z,28.00
2019-05-21T04:43:41.713Z,32.00
2019-05-21T04:44:41.703Z,32.00
2019-05-21T04:45:41.721Z,32.00
2019-05-21T04:46:41.679Z,32.00
2019-05-21T04:47:41.666Z,32.00
2019-05-21T04:48:41.655Z,32.00
2019-05-21T04:49:41.642Z,36.00
2019-05-21T04:50:41.634Z,36.00
2019-05-21T04:51:41.627Z,32.00
2019-05-21T04:52:41.608Z,32.00
2019-05-21T04:53:41.604Z,32.00
2019-05-21T04:54:41.585Z,36.00
2019-05-21T04:55:41.575Z,36.00
2019-05-21T04:56:41.565Z,36.00
2019-05-21T04:57:41.580Z,36.00
2019-05-21T04:58:41.540Z,36.00
2019-05-21T04:59:41.530Z,36.00
2019-05-21T05:00:41.525Z,36.00
2019-05-21T05:01:41.510Z,36.00
2019-05-21T05:02:41.496Z,36.00
2019-05-21T05:03:41.493Z,36.00
2019-05-21T05:04:41.474Z,36.00
2019-05-21T05:05:41.464Z,36.00
2019-05-21T05:06:41.452Z,40.00
2019-05-21T05:07:41.440Z,40.00
2019-05-21T05:08:41.434Z,40.00
2019-05-21T05:09:41.439Z,40.00
2019-05-21T05:10:41.406Z,36.00
2019-05-21T05:11:41.394Z,40.00
2019-05-21T05:12:41.388Z,40.00
2019-05-21T05:13:41.372Z,40.00
2019-05-21T05:14:41.410Z,40.00
2019-05-21T05:15:41.358Z,40.00
2019-05-21T05:16:41.338Z,40.00
2019-05-21T05:17:41.341Z,44.00
2019-05-21T05:18:41.319Z,40.00
2019-05-21T05:19:41.314Z,40.00
2019-05-21T05:20:41.294Z,40.00
2019-05-21T05:21:41.290Z,40.00
2019-05-21T05:22:41.270Z,40.00
2019-05-21T05:23:41.258Z,44.00
2019-05-21T05:24:41.248Z,44.00
2019-05-21T05:25:41.236Z,44.00
2019-05-21T05:26:41.224Z,44.00
2019-05-21T05:27:41.254Z,44.00
2019-05-21T05:28:41.202Z,44.00
2019-05-21T05:29:41.192Z,44.00
2019-05-21T05:30:41.180Z,44.00
2019-05-21T05:31:41.169Z,44.00
2019-05-21T05:32:41.157Z,44.00
2019-05-21T05:33:41.177Z,44.00
2019-05-21T05:34:41.135Z,44.00
2019-05-21T05:35:41.124Z,44.00
2019-05-21T05:36:41.112Z,48.00
2019-05-21T05:37:44.470Z,44.00
2019-05-21T05:38:42.119Z,44.00
2019-05-21T05:39:41.104Z,44.00
2019-05-21T05:40:41.071Z,44.00
2019-05-21T05:41:41.056Z,44.00
2019-05-21T05:42:41.045Z,44.00
2019-05-21T05:43:41.036Z,48.00
2019-05-21T05:44:41.033Z,48.00
2019-05-21T05:45:41.012Z,48.00
2019-05-21T05:46:41.004Z,48.00
2019-05-21T05:47:40.990Z,48.00
2019-05-21T05:48:41.003Z,48.00
2019-05-21T05:49:40.966Z,48.00
2019-05-21T05:50:40.973Z,48.00
2019-05-21T05:51:40.943Z,48.00
2019-05-21T05:52:40.932Z,48.00
2019-05-21T05:53:40.921Z,48.00
2019-05-21T05:54:40.912Z,48.00
2019-05-21T05:55:40.899Z,48.00
2019-05-21T05:56:40.919Z,48.00
2019-05-21T05:57:40.876Z,48.00
2019-05-21T05:58:40.866Z,52.00
2019-05-21T05:59:40.858Z,52.00
2019-05-21T06:00:40.842Z,52.00
2019-05-21T06:01:40.833Z,48.00
2019-05-21T06:02:40.849Z,48.00
2019-05-21T06:03:40.810Z,48.00
2019-05-21T06:04:40.797Z,48.00
2019-05-21T06:05:40.788Z,52.00
2019-05-21T06:06:40.775Z,52.00
2019-05-21T06:07:40.763Z,52.00
2019-05-21T06:08:40.782Z,52.00
2019-05-21T06:09:40.743Z,52.00
2019-05-21T06:10:40.730Z,56.00
2019-05-21T06:11:40.717Z,52.00
2019-05-21T06:12:40.708Z,52.00
2019-05-21T06:13:40.696Z,52.00
2019-05-21T06:14:40.719Z,52.00
2019-05-21T06:15:40.672Z,52.00
2019-05-21T06:16:40.662Z,56.00
2019-05-21T06:17:40.650Z,56.00
2019-05-21T06:18:40.641Z,56.00
2019-05-21T06:19:40.628Z,56.00
2019-05-21T06:20:40.651Z,52.00
2019-05-21T06:21:40.606Z,56.00
2019-05-21T06:22:40.595Z,60.00
2019-05-21T06:23:40.582Z,56.00
2019-05-21T06:24:40.573Z,56.00
2019-05-21T06:25:40.560Z,56.00
2019-05-21T06:26:40.558Z,56.00
2019-05-21T06:27:40.543Z,56.00
2019-05-21T06:28:40.530Z,56.00
2019-05-21T06:29:40.516Z,56.00
2019-05-21T06:30:40.507Z,60.00
2019-05-21T06:31:40.493Z,56.00
2019-05-21T06:32:40.490Z,56.00
2019-05-21T06:33:40.470Z,56.00
2019-05-21T06:34:40.462Z,60.00
2019-05-21T06:35:40.447Z,60.00
2019-05-21T06:36:40.435Z,60.00
2019-05-21T06:37:40.425Z,56.00
2019-05-21T06:38:40.440Z,60.00
2019-05-21T06:39:40.402Z,60.00
2019-05-21T06:40:40.393Z,48.00
2019-05-21T06:41:40.380Z,56.00
2019-05-21T06:42:40.369Z,60.00
2019-05-21T06:43:40.357Z,60.00
2019-05-21T06:44:40.356Z,60.00
2019-05-21T06:45:40.338Z,64.00
2019-05-21T06:46:40.323Z,64.00
2019-05-21T06:47:40.312Z,64.00
2019-05-21T06:48:40.300Z,64.00
2019-05-21T06:49:40.289Z,64.00
2019-05-21T06:50:40.302Z,64.00
2019-05-21T06:51:40.269Z,64.00
2019-05-21T06:52:40.257Z,64.00
2019-05-21T06:53:40.245Z,64.00
2019-05-21T06:54:40.237Z,64.00
2019-05-21T06:55:40.226Z,64.00
2019-05-21T06:56:40.219Z,64.00
2019-05-21T06:57:40.203Z,64.00
2019-05-21T06:58:40.190Z,64.00
2019-05-21T06:59:40.179Z,68.00
2019-05-21T07:00:40.168Z,68.00
2019-05-21T07:01:40.156Z,68.00
2019-05-21T07:02:40.151Z,64.00
2019-05-21T07:03:40.133Z,64.00
2019-05-21T07:04:40.121Z,68.00
2019-05-21T07:05:56.155Z,68.00
2019-05-21T07:06:44.520Z,68.00
2019-05-21T07:07:40.087Z,68.00
2019-05-21T07:08:40.084Z,68.00
2019-05-21T07:09:40.067Z,68.00
2019-05-21T07:10:40.056Z,68.00
2019-05-21T07:11:40.042Z,68.00
2019-05-21T07:12:40.032Z,68.00
2019-05-21T07:13:40.019Z,68.00
2019-05-21T07:14:40.021Z,68.00
2019-05-21T07:15:40.011Z,72.00
2019-05-21T07:16:39.986Z,68.00
2019-05-21T07:17:39.975Z,68.00
2019-05-21T07:18:41.550Z,72.00
2019-05-21T07:19:39.952Z,72.00
2019-05-21T07:20:39.953Z,72.00
2019-05-21T07:21:39.930Z,76.00
2019-05-21T07:22:39.951Z,72.00
2019-05-21T07:23:39.910Z,72.00
2019-05-21T07:24:39.896Z,76.00
2019-05-21T07:25:39.889Z,72.00
2019-05-21T07:26:40.177Z,72.00
2019-05-21T07:27:39.862Z,76.00
2019-05-21T07:28:39.865Z,72.00
2019-05-21T07:29:39.840Z,76.00
2019-05-21T07:30:39.829Z,72.00
2019-05-21T07:31:39.871Z,72.00
2019-05-21T07:32:40.104Z,72.00
2019-05-21T07:33:39.796Z,72.00
2019-05-21T07:34:39.793Z,76.00
2019-05-21T07:35:39.771Z,76.00
2019-05-21T07:36:39.763Z,76.00
2019-05-21T07:37:39.750Z,80.00
2019-05-21T07:38:52.699Z,80.00
2019-05-21T07:39:40.728Z,80.00
2019-05-21T07:40:39.720Z,80.00
2019-05-21T07:41:39.705Z,84.00
2019-05-21T07:42:39.708Z,80.00
2019-05-21T07:43:39.697Z,80.00
2019-05-21T07:44:39.701Z,80.00
2019-05-21T07:45:39.660Z,80.00
2019-05-21T07:46:40.101Z,84.00
2019-05-21T07:47:39.637Z,84.00
2019-05-21T07:48:39.626Z,80.00
2019-05-21T07:49:39.616Z,80.00
2019-05-21T07:50:39.613Z,84.00
2019-05-21T07:51:39.595Z,84.00
2019-05-21T07:52:39.581Z,84.00
2019-05-21T07:53:39.572Z,84.00
2019-05-21T07:54:39.558Z,84.00
2019-05-21T07:55:39.556Z,84.00
2019-05-21T07:56:39.568Z,88.00
2019-05-21T07:57:39.524Z,88.00
2019-05-21T07:58:39.513Z,88.00
2019-05-21T07:59:39.501Z,88.00
2019-05-21T08:00:39.498Z,88.00
2019-05-21T08:01:39.482Z,92.00
2019-05-21T08:02:39.498Z,92.00
2019-05-21T08:03:39.457Z,92.00
2019-05-21T08:04:39.445Z,92.00
2019-05-21T08:05:39.461Z,92.00
2019-05-21T08:06:39.423Z,96.00
2019-05-21T08:07:39.411Z,96.00
2019-05-21T08:08:39.430Z,100.00
2019-05-21T08:09:39.413Z,100.00
2019-05-21T08:10:39.385Z,104.00
2019-05-21T08:11:39.366Z,100.00
2019-05-21T08:12:40.077Z,104.00
2019-05-21T08:13:39.343Z,104.00
2019-05-21T08:14:39.363Z,108.00
2019-05-21T08:15:39.328Z,108.00
2019-05-21T08:16:39.311Z,108.00
2019-05-21T08:17:39.301Z,112.00
2019-05-21T08:18:39.306Z,108.00
2019-05-21T08:19:39.278Z,112.00
2019-05-21T08:20:39.293Z,112.00
2019-05-21T08:21:39.258Z,112.00
2019-05-21T08:22:39.245Z,116.00
2019-05-21T08:23:39.231Z,112.00
2019-05-21T08:24:39.224Z,116.00
2019-05-21T08:25:39.208Z,116.00
2019-05-21T08:26:39.282Z,116.00
2019-05-21T08:27:39.187Z,120.00
2019-05-21T08:28:39.174Z,120.00
2019-05-21T08:29:39.165Z,116.00
2019-05-21T08:30:39.156Z,120.00
2019-05-21T08:31:39.140Z,120.00
2019-05-21T08:32:39.160Z,120.00
2019-05-21T08:33:39.118Z,120.00
2019-05-21T08:34:39.116Z,120.00
2019-05-21T08:35:39.096Z,124.00
2019-05-21T08:36:39.141Z,120.00
2019-05-21T08:37:39.077Z,124.00
2019-05-21T08:38:39.154Z,128.00
2019-05-21T08:39:39.051Z,128.00
2019-05-21T08:40:39.040Z,128.00
2019-05-21T08:41:39.029Z,132.00
2019-05-21T08:42:39.022Z,132.00
2019-05-21T08:43:39.015Z,136.00
2019-05-21T08:44:39.002Z,132.00
2019-05-21T08:45:38.983Z,136.00
2019-05-21T08:46:38.973Z,132.00
2019-05-21T08:47:38.961Z,136.00
2019-05-21T08:48:38.950Z,136.00
2019-05-21T08:49:38.938Z,136.00
2019-05-21T08:50:38.970Z,140.00
2019-05-21T08:51:38.916Z,140.00
2019-05-21T08:52:38.907Z,148.00
2019-05-21T08:53:38.893Z,148.00
2019-05-21T08:54:38.884Z,116.00
2019-05-21T08:55:38.871Z,136.00
2019-05-21T08:56:38.867Z,136.00
2019-05-21T08:57:38.854Z,136.00
2019-05-21T08:58:38.841Z,80.00
2019-05-21T08:59:38.834Z,88.00
2019-05-21T09:00:38.815Z,136.00
2019-05-21T09:01:38.804Z,112.00
2019-05-21T09:02:38.828Z,140.00
2019-05-21T09:03:38.781Z,164.00
2019-05-21T09:04:46.480Z,176.00
2019-05-21T09:05:39.757Z,172.00
2019-05-21T09:06:38.761Z,172.00
2019-05-21T09:07:38.738Z,172.00
2019-05-21T09:08:38.734Z,176.00
2019-05-21T09:09:49.913Z,176.00
2019-05-21T09:10:39.702Z,176.00
2019-05-21T09:11:38.700Z,168.00
2019-05-21T09:12:38.681Z,172.00
2019-05-21T09:13:38.671Z,172.00
2019-05-21T09:14:38.691Z,184.00
2019-05-21T09:15:38.664Z,184.00
2019-05-21T09:16:38.634Z,188.00
2019-05-21T09:17:38.628Z,188.00
2019-05-21T09:18:38.613Z,196.00
2019-05-21T09:19:38.600Z,188.00
2019-05-21T09:20:38.625Z,192.00
2019-05-21T09:21:38.578Z,196.00
2019-05-21T09:22:38.566Z,180.00
2019-05-21T09:23:38.560Z,172.00
2019-05-21T09:24:38.546Z,208.00
2019-05-21T09:25:38.585Z,196.00
2019-05-21T09:26:38.554Z,200.00
2019-05-21T09:27:38.515Z,144.00
2019-05-21T09:28:38.503Z,140.00
2019-05-21T09:29:38.490Z,116.00
2019-05-21T09:30:38.477Z,124.00
2019-05-21T09:31:38.466Z,108.00
2019-05-21T09:32:38.462Z,108.00
2019-05-21T09:33:38.445Z,112.00
2019-05-21T09:34:47.968Z,172.00
2019-05-21T09:35:39.466Z,200.00
2019-05-21T09:36:38.409Z,196.00
2019-05-21T09:37:38.401Z,120.00
2019-05-21T09:38:38.481Z,116.00
2019-05-21T09:39:38.377Z,124.00
2019-05-21T09:40:38.386Z,112.00
2019-05-21T09:41:38.384Z,108.00
2019-05-21T09:42:38.357Z,112.00
2019-05-21T09:43:38.333Z,108.00
2019-05-21T09:44:38.331Z,112.00
2019-05-21T09:45:38.422Z,212.00
2019-05-21T09:46:38.297Z,212.00
2019-05-21T09:47:38.293Z,156.00
2019-05-21T09:48:38.279Z,128.00
2019-05-21T09:49:38.285Z,216.00
2019-05-21T09:50:38.263Z,224.00
2019-05-21T09:51:38.247Z,224.00
2019-05-21T09:52:38.231Z,128.00
2019-05-21T09:53:38.221Z,116.00
2019-05-21T09:54:38.223Z,112.00
2019-05-21T09:55:38.198Z,108.00
2019-05-21T09:56:38.194Z,104.00
2019-05-21T09:57:38.174Z,108.00
2019-05-21T09:58:38.170Z,112.00
2019-05-21T09:59:38.156Z,112.00
2019-05-21T10:00:38.233Z,128.00
2019-05-21T10:01:38.129Z,228.00
2019-05-21T10:02:38.126Z,232.00
2019-05-21T10:03:38.134Z,152.00
2019-05-21T10:04:38.102Z,112.00
2019-05-21T10:05:38.083Z,128.00
2019-05-21T10:06:38.078Z,116.00
2019-05-21T10:07:40.521Z,116.00
2019-05-21T10:08:38.082Z,116.00
2019-05-21T10:09:38.041Z,116.00
2019-05-21T10:10:38.030Z,112.00
2019-05-21T10:11:38.018Z,116.00
2019-05-21T10:12:38.008Z,112.00
2019-05-21T10:13:37.996Z,116.00
2019-05-21T10:14:38.019Z,144.00
2019-05-21T10:15:38.000Z,244.00
2019-05-21T10:16:37.964Z,232.00
2019-05-21T10:17:37.959Z,248.00
2019-05-21T10:18:37.944Z,240.00
2019-05-21T10:19:37.930Z,128.00
2019-05-21T10:20:37.948Z,116.00
2019-05-21T10:21:37.905Z,120.00
2019-05-21T10:22:37.894Z,124.00
2019-05-21T10:23:37.884Z,120.00
2019-05-21T10:24:37.872Z,120.00
2019-05-21T10:25:37.873Z,120.00
2019-05-21T10:26:37.859Z,116.00
2019-05-21T10:27:37.916Z,116.00
2019-05-21T10:28:37.832Z,112.00
2019-05-21T10:29:37.816Z,112.00
2019-05-21T10:30:37.806Z,116.00
2019-05-21T10:31:37.793Z,140.00
2019-05-21T10:32:37.812Z,244.00
2019-05-21T10:33:37.771Z,256.00
2019-05-21T10:34:37.762Z,244.00
2019-05-21T10:35:37.749Z,216.00
2019-05-21T10:36:37.737Z,188.00
2019-05-21T10:37:37.728Z,172.00
2019-05-21T10:38:37.749Z,188.00
2019-05-21T10:39:37.706Z,180.00
2019-05-21T10:40:37.695Z,220.00
2019-05-21T10:41:37.683Z,228.00
2019-05-21T10:42:37.702Z,212.00
2019-05-21T10:43:37.663Z,192.00
2019-05-21T10:44:37.681Z,200.00
2019-05-21T10:45:37.640Z,220.00
2019-05-21T10:46:37.629Z,232.00
2019-05-21T10:47:37.617Z,224.00
2019-05-21T10:48:37.606Z,228.00
2019-05-21T10:49:37.593Z,216.00
2019-05-21T10:50:37.619Z,160.00
2019-05-21T10:51:37.571Z,124.00
2019-05-21T10:52:37.559Z,168.00
2019-05-21T10:53:37.550Z,124.00
2019-05-21T10:54:37.537Z,112.00
2019-05-21T10:55:37.526Z,112.00
2019-05-21T10:56:47.613Z,112.00
2019-05-21T10:57:38.501Z,112.00
2019-05-21T10:58:37.493Z,108.00
2019-05-21T10:59:37.481Z,116.00
2019-05-21T11:00:37.479Z,120.00
2019-05-21T11:01:37.459Z,152.00
2019-05-21T11:02:37.478Z,124.00
2019-05-21T11:03:37.436Z,124.00
2019-05-21T11:04:37.429Z,128.00
2019-05-21T11:05:37.413Z,136.00
2019-05-21T11:06:37.404Z,136.00
2019-05-21T11:07:37.391Z,132.00
2019-05-21T11:08:37.414Z,132.00
2019-05-21T11:09:37.374Z,132.00
2019-05-21T11:10:37.357Z,136.00
2019-05-21T11:11:37.347Z,132.00
2019-05-21T11:12:37.335Z,132.00
2019-05-21T11:13:37.351Z,132.00
2019-05-21T11:14:37.328Z,132.00
2019-05-21T11:15:37.302Z,132.00
2019-05-21T11:16:37.292Z,128.00
2019-05-21T11:17:50.057Z,124.00
2019-05-21T11:18:38.267Z,124.00
2019-05-21T11:19:37.257Z,120.00
2019-05-21T11:20:37.270Z,116.00
2019-05-21T11:21:37.243Z,112.00
2019-05-21T11:22:37.225Z,116.00
2019-05-21T11:23:37.273Z,120.00
2019-05-21T11:24:37.236Z,120.00
2019-05-21T11:25:37.191Z,128.00
2019-05-21T11:26:37.187Z,136.00
2019-05-21T11:27:37.167Z,140.00
2019-05-21T11:28:37.156Z,148.00
2019-05-21T11:29:37.148Z,184.00
2019-05-21T11:30:37.134Z,224.00
2019-05-21T11:31:37.123Z,292.00
2019-05-21T11:32:37.120Z,292.00
2019-05-21T11:33:37.104Z,220.00
2019-05-21T11:34:37.089Z,208.00
2019-05-21T11:35:37.079Z,180.00
2019-05-21T11:36:37.066Z,228.00
2019-05-21T11:37:37.056Z,228.00
2019-05-21T11:38:40.078Z,180.00
2019-05-21T11:39:37.032Z,172.00
2019-05-21T11:40:37.021Z,176.00
2019-05-21T11:41:37.011Z,172.00
2019-05-21T11:42:36.999Z,148.00
2019-05-21T11:43:36.990Z,132.00
2019-05-21T11:44:36.990Z,152.00
2019-05-21T11:45:36.969Z,172.00
2019-05-21T11:46:36.953Z,132.00
2019-05-21T11:47:36.943Z,124.00
2019-05-21T11:48:36.932Z,124.00
2019-05-21T11:49:36.922Z,124.00
2019-05-21T11:50:36.918Z,128.00
2019-05-21T11:51:36.899Z,156.00
2019-05-21T11:52:36.894Z,168.00
2019-05-21T11:53:36.878Z,196.00
2019-05-21T11:54:36.864Z,140.00
2019-05-21T11:55:36.855Z,200.00
2019-05-21T11:56:36.851Z,200.00
2019-05-21T11:57:36.833Z,204.00
2019-05-21T11:58:39.888Z,204.00
2019-05-21T11:59:36.808Z,208.00
2019-05-21T12:00:36.875Z,204.00
2019-05-21T12:01:36.788Z,176.00
2019-05-21T12:02:36.784Z,152.00
2019-05-21T12:03:36.765Z,164.00
2019-05-21T12:04:36.754Z,184.00
2019-05-21T12:05:36.747Z,176.00
2019-05-21T12:06:36.734Z,168.00
2019-05-21T12:07:36.724Z,184.00
2019-05-21T12:08:36.747Z,176.00
2019-05-21T12:09:36.699Z,156.00
2019-05-21T12:10:36.686Z,208.00
2019-05-21T12:11:36.676Z,192.00
2019-05-21T12:12:36.665Z,164.00
2019-05-21T12:13:36.655Z,140.00
2019-05-21T12:14:36.673Z,128.00
2019-05-21T12:15:36.630Z,148.00
2019-05-21T12:16:36.643Z,184.00
2019-05-21T12:17:36.609Z,196.00
2019-05-21T12:18:36.598Z,212.00
2019-05-21T12:19:36.591Z,280.00
2019-05-21T12:20:37.607Z,288.00
2019-05-21T12:21:36.563Z,316.00
2019-05-21T12:22:36.552Z,316.00
2019-05-21T12:23:36.545Z,316.00
2019-05-21T12:24:36.532Z,332.00
2019-05-21T12:25:36.527Z,276.00
2019-05-21T12:26:36.519Z,236.00
2019-05-21T12:27:36.498Z,252.00
2019-05-21T12:28:36.487Z,244.00
2019-05-21T12:29:36.475Z,192.00
2019-05-21T12:30:36.527Z,164.00
2019-05-21T12:31:36.454Z,148.00
2019-05-21T12:32:36.471Z,140.00
2019-05-21T12:33:36.431Z,136.00
2019-05-21T12:34:38.913Z,132.00
2019-05-21T12:35:36.407Z,172.00
2019-05-21T12:36:36.407Z,252.00
2019-05-21T12:37:36.385Z,308.00
2019-05-21T12:38:36.382Z,292.00
2019-05-21T12:39:36.363Z,328.00
2019-05-21T12:40:36.353Z,328.00
2019-05-21T12:41:36.354Z,340.00
2019-05-21T12:42:36.332Z,328.00
2019-05-21T12:43:36.317Z,352.00
2019-05-21T12:44:36.315Z,356.00
2019-05-21T12:45:36.295Z,364.00
2019-05-21T12:46:36.284Z,360.00
2019-05-21T12:47:36.278Z,360.00
2019-05-21T12:48:36.269Z,328.00
2019-05-21T12:49:36.251Z,352.00
2019-05-21T12:50:36.258Z,340.00